createdAt,value
2023-04-15T00:00:07.259Z,9.75
2023-04-15T00:02:20.242Z,13.98
2023-04-15T00:04:25.919Z,16.92
2023-04-15T00:06:31.267Z,10.45
2023-04-15T00:08:36.509Z,13.00
2023-04-15T00:10:46.694Z,12.95
2023-04-15T00:12:52.886Z,14.20
2023-04-15T00:14:59.058Z,9.93
2023-04-15T00:17:04.669Z,15.77
2023-04-15T00:19:09.820Z,11.98
2023-04-15T00:21:14.830Z,14.70
2023-04-15T00:23:19.846Z,12.93
2023-04-15T00:25:25.086Z,10.90
2023-04-15T00:27:33.647Z,11.25
2023-04-15T00:29:38.690Z,11.88
2023-04-15T00:31:44.138Z,16.10
2023-04-15T00:33:49.624Z,12.65
2023-04-15T00:35:54.637Z,12.93
2023-04-15T00:37:59.938Z,15.00
2023-04-15T00:40:05.770Z,13.45
2023-04-15T00:42:12.394Z,12.85
2023-04-15T00:44:21.413Z,12.55
2023-04-15T00:46:27.114Z,14.10
2023-04-15T00:48:32.868Z,10.95
2023-04-15T00:50:38.113Z,19.27
2023-04-15T00:52:43.808Z,24.10
2023-04-15T00:54:48.921Z,12.07
2023-04-15T00:56:54.025Z,13.45
2023-04-15T00:58:59.815Z,17.00
2023-04-15T01:01:08.024Z,12.52
2023-04-15T01:03:13.427Z,12.95
2023-04-15T01:05:19.906Z,13.43
2023-04-15T01:07:25.147Z,12.93
2023-04-15T01:09:30.329Z,11.52
2023-04-15T01:11:36.493Z,12.45
2023-04-15T01:13:41.884Z,13.88
2023-04-15T01:15:47.128Z,18.48
2023-04-15T01:17:54.978Z,17.13
2023-04-15T01:20:00.875Z,14.70
2023-04-15T01:22:08.802Z,13.75
2023-04-15T01:24:21.407Z,15.43
2023-04-15T01:26:30.900Z,12.68
2023-04-15T01:28:36.243Z,15.10
2023-04-15T01:30:43.109Z,14.35
2023-04-15T01:32:48.180Z,20.80
2023-04-15T01:34:53.211Z,12.45
2023-04-15T01:37:01.576Z,15.57
2023-04-15T01:39:07.696Z,12.02
2023-04-15T01:41:12.714Z,13.15
2023-04-15T01:43:20.588Z,13.77
2023-04-15T01:45:25.940Z,22.70
2023-04-15T01:47:31.369Z,12.38
2023-04-15T01:49:37.563Z,12.90
2023-04-15T01:51:42.683Z,13.20
2023-04-15T01:53:48.638Z,11.30
2023-04-15T01:55:54.223Z,12.98
2023-04-15T01:58:00.165Z,12.90
2023-04-15T02:00:09.944Z,11.32
2023-04-15T02:02:20.733Z,13.85
2023-04-15T02:04:26.307Z,16.33
2023-04-15T02:06:32.201Z,13.63
2023-04-15T02:08:37.679Z,13.25
2023-04-15T02:10:45.811Z,17.75
2023-04-15T02:12:51.160Z,17.02
2023-04-15T02:14:57.130Z,15.35
2023-04-15T02:17:07.584Z,18.50
2023-04-15T02:19:13.120Z,18.40
2023-04-15T02:21:19.090Z,16.52
2023-04-15T02:23:24.492Z,14.80
2023-04-15T02:25:29.879Z,14.10
2023-04-15T02:27:35.152Z,12.05
2023-04-15T02:29:40.469Z,14.70
2023-04-15T02:31:46.327Z,14.60
2023-04-15T02:33:54.379Z,18.02
2023-04-15T02:35:59.450Z,14.27
2023-04-15T02:38:04.745Z,17.52
2023-04-15T02:40:13.636Z,11.43
2023-04-15T02:42:18.871Z,13.98
2023-04-15T02:44:25.456Z,12.07
2023-04-15T02:46:35.344Z,14.82
2023-04-15T02:48:40.869Z,13.07
2023-04-15T02:50:49.800Z,14.40
2023-04-15T02:52:55.554Z,12.98
2023-04-15T02:55:02.685Z,11.30
2023-04-15T02:57:08.973Z,17.52
2023-04-15T02:59:15.487Z,12.90
2023-04-15T03:01:20.778Z,14.30
2023-04-15T03:03:27.006Z,13.88
2023-04-15T03:05:32.784Z,16.13
2023-04-15T03:07:42.481Z,17.73
2023-04-15T03:09:49.106Z,13.75
2023-04-15T03:11:54.935Z,17.02
2023-04-15T03:14:01.275Z,15.65
2023-04-15T03:16:12.061Z,14.07
2023-04-15T03:18:17.214Z,12.60
2023-04-15T03:20:24.053Z,16.15
2023-04-15T03:22:30.154Z,11.57
2023-04-15T03:24:37.805Z,14.40
2023-04-15T03:26:42.893Z,14.05
2023-04-15T03:28:51.176Z,16.02
2023-04-15T03:30:57.423Z,16.33
2023-04-15T03:33:02.694Z,18.08
2023-04-15T03:35:09.783Z,16.88
2023-04-15T03:37:14.796Z,11.23
2023-04-15T03:39:19.877Z,12.80
2023-04-15T03:41:27.486Z,15.10
2023-04-15T03:43:32.776Z,10.95
2023-04-15T03:45:37.942Z,16.27
2023-04-15T03:47:43.167Z,12.98
2023-04-15T03:49:48.182Z,14.30
2023-04-15T03:51:53.204Z,14.18
2023-04-15T03:53:58.878Z,15.75
2023-04-15T03:56:03.896Z,11.45
2023-04-15T03:58:13.083Z,11.63
2023-04-15T04:00:18.778Z,14.32
2023-04-15T04:02:24.060Z,10.45
2023-04-15T04:04:29.276Z,13.30
2023-04-15T04:06:34.627Z,15.52
2023-04-15T04:08:39.697Z,13.23
2023-04-15T04:10:45.156Z,14.43
2023-04-15T04:12:50.734Z,13.63
2023-04-15T04:14:58.306Z,14.65
2023-04-15T04:17:03.898Z,10.82
2023-04-15T04:19:08.908Z,10.68
2023-04-15T04:21:14.555Z,14.95
2023-04-15T04:23:20.077Z,14.48
2023-04-15T04:25:25.968Z,12.00
2023-04-15T04:27:31.665Z,12.27
2023-04-15T04:29:37.021Z,16.58
2023-04-15T04:31:44.824Z,12.55
2023-04-15T04:33:50.153Z,12.85
2023-04-15T04:35:55.190Z,16.05
2023-04-15T04:38:00.464Z,21.02
2023-04-15T04:40:05.522Z,19.42
2023-04-15T04:42:11.170Z,10.38
2023-04-15T04:44:16.165Z,18.23
2023-04-15T04:46:21.866Z,26.10
2023-04-15T04:48:29.889Z,23.27
2023-04-15T04:50:35.501Z,16.50
2023-04-15T04:52:41.522Z,19.58
2023-04-15T04:54:47.472Z,16.30
2023-04-15T04:56:52.486Z,18.65
2023-04-15T04:58:57.476Z,21.48
2023-04-15T05:01:03.185Z,16.70
2023-04-15T05:03:08.944Z,21.75
2023-04-15T05:05:16.733Z,18.52
2023-04-15T05:07:22.343Z,16.67
2023-04-15T05:09:27.347Z,15.77
2023-04-15T05:11:32.796Z,17.70
2023-04-15T05:13:38.829Z,21.33
2023-04-15T05:15:43.880Z,14.18
2023-04-15T05:17:48.990Z,13.60
2023-04-15T05:19:54.094Z,18.80
2023-04-15T05:22:01.773Z,14.23
2023-04-15T05:24:08.012Z,16.85
2023-04-15T05:26:13.108Z,20.50
2023-04-15T05:28:18.362Z,22.25
2023-04-15T05:30:23.411Z,23.17
2023-04-15T05:32:29.032Z,15.93
2023-04-15T05:34:34.090Z,21.42
2023-04-15T05:36:39.142Z,14.75
2023-04-15T05:38:46.827Z,20.83
2023-04-15T05:40:51.921Z,14.95
2023-04-15T05:42:57.998Z,12.98
2023-04-15T05:45:05.628Z,18.60
2023-04-15T05:47:11.112Z,14.18
2023-04-15T05:49:16.446Z,21.95
2023-04-15T05:51:21.550Z,18.48
2023-04-15T05:53:27.036Z,17.35
2023-04-15T05:55:34.672Z,19.85
2023-04-15T05:57:40.219Z,18.70
2023-04-15T05:59:45.304Z,15.77
2023-04-15T06:01:50.621Z,16.85
2023-04-15T06:03:55.939Z,13.88
2023-04-15T06:06:01.181Z,15.75
2023-04-15T06:08:06.847Z,14.90
2023-04-15T06:10:13.176Z,16.48
2023-04-15T06:12:21.044Z,13.10
2023-04-15T06:14:26.206Z,13.52
2023-04-15T06:16:31.389Z,18.75
2023-04-15T06:18:37.405Z,13.20
2023-04-15T06:20:42.449Z,15.32
2023-04-15T06:22:47.485Z,14.88
2023-04-15T06:24:53.200Z,9.30
2023-04-15T06:26:58.221Z,13.13
2023-04-15T06:29:05.937Z,17.60
2023-04-15T06:31:11.125Z,11.70
2023-04-15T06:33:16.598Z,10.68
2023-04-15T06:35:22.281Z,13.48
2023-04-15T06:37:27.525Z,11.85
2023-04-15T06:39:32.787Z,11.57
2023-04-15T06:41:37.872Z,11.85
2023-04-15T06:43:43.521Z,15.27
2023-04-15T06:45:51.156Z,17.25
2023-04-15T06:47:56.217Z,11.02
2023-04-15T06:50:01.328Z,13.77
2023-04-15T06:52:06.422Z,18.35
2023-04-15T06:54:11.908Z,16.27
2023-04-15T06:56:17.105Z,14.15
2023-04-15T06:58:22.403Z,15.25
2023-04-15T07:00:29.056Z,13.75
2023-04-15T07:02:36.977Z,12.75
2023-04-15T07:04:42.845Z,13.93
2023-04-15T07:06:47.929Z,15.13
2023-04-15T07:08:53.359Z,13.15
2023-04-15T07:10:58.409Z,13.25
2023-04-15T07:13:03.865Z,12.00
2023-04-15T07:15:11.171Z,19.00
2023-04-15T07:17:16.265Z,11.80
2023-04-15T07:19:24.562Z,16.83
2023-04-15T07:21:29.822Z,14.85
2023-04-15T07:23:34.858Z,22.02
2023-04-15T07:25:39.916Z,15.77
2023-04-15T07:27:44.918Z,16.10
2023-04-15T07:29:51.948Z,14.80
2023-04-15T07:31:57.330Z,18.25
2023-04-15T07:34:02.897Z,15.55
2023-04-15T07:36:10.697Z,17.67
2023-04-15T07:38:15.726Z,15.90
2023-04-15T07:40:22.527Z,21.67
2023-04-15T07:42:27.902Z,16.50
2023-04-15T07:44:33.484Z,19.58
2023-04-15T07:46:38.794Z,16.05
2023-04-15T07:48:44.098Z,18.00
2023-04-15T07:50:49.120Z,18.35
2023-04-15T07:52:57.514Z,19.02
2023-04-15T07:55:02.670Z,19.30
2023-04-15T07:57:08.075Z,18.83
2023-04-15T07:59:13.220Z,19.35
2023-04-15T08:01:18.252Z,21.63
2023-04-15T08:03:24.346Z,19.63
2023-04-15T08:05:29.726Z,18.92
2023-04-15T08:07:34.879Z,18.92
2023-04-15T08:09:42.599Z,18.52
2023-04-15T08:11:47.802Z,20.33
2023-04-15T08:13:52.839Z,19.23
2023-04-15T08:16:23.089Z,21.58
2023-04-15T08:18:28.130Z,19.83
2023-04-15T08:20:33.328Z,17.35
2023-04-15T08:22:38.340Z,19.02
2023-04-15T08:24:46.123Z,19.45
2023-04-15T08:26:51.315Z,17.83
2023-04-15T08:28:56.588Z,20.55
2023-04-15T08:31:01.908Z,19.98
2023-04-15T08:33:07.073Z,19.77
2023-04-15T08:35:12.595Z,18.23
2023-04-15T08:37:17.716Z,19.23
2023-04-15T08:39:22.917Z,18.83
2023-04-15T08:41:34.637Z,23.13
2023-04-15T08:43:49.505Z,22.70
2023-04-15T08:45:55.953Z,23.00
2023-04-15T08:48:01.596Z,20.58
2023-04-15T08:50:09.435Z,21.85
2023-04-15T08:52:14.999Z,23.02
2023-04-15T08:54:21.587Z,22.98
2023-04-15T08:56:33.862Z,21.13
2023-04-15T08:58:39.474Z,21.90
2023-04-15T09:00:46.284Z,23.58
2023-04-15T09:02:51.599Z,20.75
2023-04-15T09:04:56.903Z,20.77
2023-04-15T09:07:02.309Z,21.70
2023-04-15T09:09:08.340Z,18.73
2023-04-15T09:11:13.729Z,19.40
2023-04-15T09:13:22.124Z,22.05
2023-04-15T09:15:30.380Z,19.52
2023-04-15T09:17:37.305Z,19.70
2023-04-15T09:19:42.708Z,21.23
2023-04-15T09:21:51.306Z,16.00
2023-04-15T09:24:02.506Z,16.30
2023-04-15T09:26:09.226Z,16.67
2023-04-15T09:28:14.535Z,16.80
2023-04-15T09:30:22.530Z,16.20
2023-04-15T09:32:27.572Z,15.20
2023-04-15T09:34:39.680Z,16.33
2023-04-15T09:37:00.091Z,14.50
2023-04-15T09:39:05.124Z,14.68
2023-04-15T09:41:21.654Z,13.57
2023-04-15T09:43:40.636Z,16.48
2023-04-15T09:45:53.051Z,16.00
2023-04-15T09:47:59.370Z,14.80
2023-04-15T09:50:05.054Z,17.65
2023-04-15T09:52:10.197Z,14.02
2023-04-15T09:54:15.240Z,14.57
2023-04-15T09:56:20.854Z,18.85
2023-04-15T09:58:28.141Z,16.33
2023-04-15T10:00:35.649Z,15.93
2023-04-15T10:02:45.301Z,18.95
2023-04-15T10:04:52.281Z,17.42
2023-04-15T10:06:57.385Z,17.83
2023-04-15T10:09:03.501Z,18.05
2023-04-15T10:11:10.327Z,19.70
2023-04-15T10:13:17.865Z,16.45
2023-04-15T10:15:23.851Z,17.05
2023-04-15T10:17:33.814Z,15.02
2023-04-15T10:19:42.463Z,13.27
2023-04-15T10:21:48.687Z,16.67
2023-04-15T10:23:54.158Z,12.82
2023-04-15T10:26:00.686Z,13.20
2023-04-15T10:28:06.314Z,19.92
2023-04-15T10:30:12.507Z,13.00
2023-04-15T10:32:19.070Z,14.80
2023-04-15T10:34:25.785Z,12.05
2023-04-15T10:36:34.092Z,12.85
2023-04-15T10:38:41.933Z,13.77
2023-04-15T10:40:47.366Z,12.75
2023-04-15T10:42:52.911Z,11.95
2023-04-15T10:45:00.407Z,13.57
2023-04-15T10:47:13.803Z,15.63
2023-04-15T10:49:27.024Z,13.80
2023-04-15T10:53:40.435Z,11.07
2023-04-15T10:55:45.456Z,12.52
2023-04-15T10:57:54.659Z,15.88
2023-04-15T11:00:15.109Z,12.20
2023-04-15T11:02:20.203Z,11.63
2023-04-15T11:04:57.715Z,13.35
2023-04-15T11:07:11.367Z,12.38
2023-04-15T11:09:35.258Z,11.18
2023-04-15T11:12:12.086Z,12.70
2023-04-15T11:14:19.106Z,13.85
2023-04-15T11:16:24.150Z,13.13
2023-04-15T11:18:33.058Z,13.52
2023-04-15T11:20:38.805Z,11.32
2023-04-15T11:23:14.654Z,12.60
2023-04-15T11:25:26.751Z,15.20
2023-04-15T11:27:34.025Z,12.25
2023-04-15T11:29:39.025Z,11.82
2023-04-15T11:31:46.154Z,12.90
2023-04-15T11:33:59.608Z,12.75
2023-04-15T11:38:15.544Z,13.25
2023-04-15T11:40:25.514Z,12.57
2023-04-15T11:42:42.758Z,13.35
2023-04-15T11:44:51.720Z,12.68
2023-04-15T11:46:59.278Z,16.85
2023-04-15T11:49:05.432Z,12.88
2023-04-15T11:51:11.056Z,11.90
2023-04-15T11:53:18.672Z,12.43
2023-04-15T11:55:24.108Z,12.38
2023-04-15T11:57:34.697Z,11.90
2023-04-15T11:59:46.361Z,12.00
2023-04-15T12:01:52.629Z,11.93
2023-04-15T12:04:00.040Z,13.18
2023-04-15T12:06:11.747Z,12.45
2023-04-15T12:08:19.334Z,14.55
2023-04-15T12:10:27.073Z,12.95
2023-04-15T12:12:32.200Z,13.95
2023-04-15T12:14:38.463Z,12.60
2023-04-15T12:16:49.214Z,11.27
2023-04-15T12:18:56.649Z,11.82
2023-04-15T12:21:12.881Z,11.50
2023-04-15T12:23:22.746Z,11.57
2023-04-15T12:25:38.417Z,10.43
2023-04-15T12:27:43.449Z,11.30
2023-04-15T12:29:48.966Z,10.80
2023-04-15T12:31:56.756Z,9.57
2023-04-15T12:34:02.781Z,9.50
2023-04-15T12:36:09.557Z,10.02
2023-04-15T12:38:14.786Z,8.38
2023-04-15T12:40:23.658Z,10.25
2023-04-15T12:42:28.929Z,8.25
2023-04-15T12:44:36.163Z,8.05
2023-04-15T12:46:41.618Z,8.60
2023-04-15T12:48:47.049Z,7.38
2023-04-15T12:50:52.084Z,7.10
2023-04-15T12:52:57.366Z,6.65
2023-04-15T12:55:02.877Z,6.75
2023-04-15T12:57:10.509Z,5.97
2023-04-15T12:59:16.219Z,6.88
2023-04-15T13:01:21.440Z,6.40
2023-04-15T13:03:26.598Z,6.13
2023-04-15T13:05:32.331Z,6.22
2023-04-15T13:07:37.497Z,5.57
2023-04-15T13:09:42.507Z,6.25
2023-04-15T13:11:47.868Z,6.60
2023-04-15T13:13:56.157Z,10.60
2023-04-15T13:16:02.090Z,6.47
2023-04-15T13:18:09.879Z,6.28
2023-04-15T13:20:15.564Z,6.88
2023-04-15T13:22:20.590Z,5.18
2023-04-15T13:24:25.870Z,8.88
2023-04-15T13:26:31.902Z,6.85
2023-04-15T13:28:37.325Z,7.53
2023-04-15T13:30:46.270Z,6.93
2023-04-15T13:32:51.900Z,6.40
2023-04-15T13:34:57.522Z,5.88
2023-04-15T13:37:09.102Z,5.45
2023-04-15T13:39:14.159Z,6.65
2023-04-15T13:41:20.448Z,5.22
2023-04-15T13:43:25.490Z,6.20
2023-04-15T13:45:30.571Z,5.45
2023-04-15T13:47:38.248Z,6.65
2023-04-15T13:49:43.399Z,5.95
2023-04-15T13:51:48.845Z,6.15
2023-04-15T13:53:53.855Z,5.22
2023-04-15T13:55:59.263Z,5.28
2023-04-15T13:58:04.315Z,5.60
2023-04-15T14:00:11.587Z,6.38
2023-04-15T14:02:16.703Z,5.15
2023-04-15T14:04:24.622Z,5.13
2023-04-15T14:06:30.395Z,4.47
2023-04-15T14:08:35.645Z,7.30
2023-04-15T14:10:44.363Z,4.55
2023-04-15T14:12:49.369Z,4.82
2023-04-15T14:14:54.420Z,5.15
2023-04-15T14:17:00.299Z,4.95
2023-04-15T14:19:05.947Z,4.15
2023-04-15T14:21:13.779Z,6.00
2023-04-15T14:23:18.821Z,9.35
2023-04-15T14:25:33.405Z,4.20
2023-04-15T14:27:39.189Z,4.78
2023-04-15T14:29:44.191Z,3.97
2023-04-15T14:32:10.935Z,4.88
2023-04-15T14:34:15.644Z,3.10
2023-04-15T14:36:23.280Z,5.28
2023-04-15T14:38:28.755Z,3.45
2023-04-15T14:40:33.770Z,3.65
2023-04-15T14:42:40.356Z,4.68
2023-04-15T14:44:45.362Z,4.47
2023-04-15T14:46:50.912Z,4.53
2023-04-15T14:48:56.081Z,3.85
2023-04-15T14:51:02.529Z,4.00
2023-04-15T14:53:10.750Z,5.93
2023-04-15T14:55:16.363Z,4.63
2023-04-15T14:57:21.936Z,3.80
2023-04-15T14:59:27.444Z,5.40
2023-04-15T15:01:33.158Z,4.93
2023-04-15T15:03:38.402Z,4.68
2023-04-15T15:05:44.464Z,5.15
2023-04-15T15:07:50.576Z,8.75
2023-04-15T15:09:58.520Z,7.13
2023-04-15T15:12:03.840Z,7.15
2023-04-15T15:14:08.829Z,4.40
2023-04-15T15:16:14.596Z,5.88
2023-04-15T15:18:20.139Z,6.82
2023-04-15T15:20:25.577Z,5.47
2023-04-15T15:22:30.960Z,5.15
2023-04-15T15:24:36.037Z,6.47
2023-04-15T15:26:43.661Z,5.03
2023-04-15T15:28:50.718Z,5.45
2023-04-15T15:30:55.933Z,8.32
2023-04-15T15:33:01.096Z,7.10
2023-04-15T15:35:06.385Z,5.68
2023-04-15T15:37:11.467Z,6.38
2023-04-15T15:39:16.494Z,7.28
2023-04-15T15:41:21.602Z,5.95
2023-04-15T15:43:29.538Z,4.88
2023-04-15T15:45:34.979Z,6.35
2023-04-15T15:47:40.692Z,8.55
2023-04-15T15:49:46.321Z,5.80
2023-04-15T15:51:52.084Z,5.10
2023-04-15T15:53:57.346Z,12.98
2023-04-15T15:56:03.919Z,4.85
2023-04-15T15:58:08.931Z,5.28
2023-04-15T16:00:18.063Z,5.50
2023-04-15T16:02:37.583Z,5.57
2023-04-15T16:04:46.050Z,4.70
2023-04-15T16:06:51.864Z,5.25
2023-04-15T16:08:56.876Z,5.53
2023-04-15T16:11:01.979Z,5.57
2023-04-15T16:13:07.273Z,6.57
2023-04-15T16:15:16.343Z,5.63
2023-04-15T16:17:21.353Z,5.55
2023-04-15T16:19:26.395Z,5.32
2023-04-15T16:21:32.511Z,5.30
2023-04-15T16:23:39.507Z,5.38
2023-04-15T16:25:46.227Z,4.97
2023-04-15T16:28:03.167Z,6.10
2023-04-15T16:30:17.862Z,4.97
2023-04-15T16:32:23.248Z,4.82
2023-04-15T16:34:28.492Z,4.97
2023-04-15T16:36:40.497Z,6.95
2023-04-15T16:38:48.815Z,5.68
2023-04-15T16:40:54.273Z,6.28
2023-04-15T16:42:59.304Z,6.57
2023-04-15T16:45:04.560Z,5.75
2023-04-15T16:47:12.237Z,7.53
2023-04-15T16:49:17.322Z,5.43
2023-04-15T16:51:22.335Z,5.40
2023-04-15T16:53:27.437Z,6.28
2023-04-15T16:55:32.455Z,8.57
2023-04-15T16:58:02.742Z,6.55
2023-04-15T17:00:02.927Z,7.53
2023-04-15T17:02:08.025Z,7.55
2023-04-15T17:04:16.235Z,7.03
2023-04-15T17:06:21.415Z,7.60
2023-04-15T17:08:26.475Z,8.65
2023-04-15T17:10:31.519Z,8.77
2023-04-15T17:12:36.551Z,8.90
2023-04-15T17:14:41.570Z,11.15
2023-04-15T17:16:46.754Z,7.90
2023-04-15T17:18:52.258Z,9.05
2023-04-15T17:20:59.932Z,9.13
2023-04-15T17:23:04.954Z,9.60
2023-04-15T17:25:11.328Z,9.23
2023-04-15T17:27:16.499Z,13.20
2023-04-15T17:29:21.558Z,8.32
2023-04-15T17:31:26.619Z,9.25
2023-04-15T17:34:00.208Z,14.45
2023-04-15T17:36:00.819Z,9.85
2023-04-15T17:38:05.814Z,12.00
2023-04-15T17:40:12.990Z,11.27
2023-04-15T17:42:18.213Z,9.88
2023-04-15T17:44:25.190Z,11.13
2023-04-15T17:46:30.884Z,10.15
2023-04-15T17:48:36.564Z,11.52
2023-04-15T17:50:41.750Z,11.77
2023-04-15T17:52:50.459Z,12.23
2023-04-15T17:54:56.225Z,14.35
2023-04-15T17:57:01.522Z,10.23
2023-04-15T17:59:07.112Z,11.75
2023-04-15T18:01:12.163Z,9.55
2023-04-15T18:03:17.821Z,12.13
2023-04-15T18:05:23.225Z,13.30
2023-04-15T18:07:28.247Z,10.93
2023-04-15T18:09:36.362Z,11.40
2023-04-15T18:11:44.014Z,11.68
2023-04-15T18:13:49.003Z,11.38
2023-04-15T18:15:54.726Z,11.75
2023-04-15T18:17:59.886Z,10.20
2023-04-15T18:20:05.262Z,11.85
2023-04-15T18:22:10.467Z,11.57
2023-04-15T18:24:16.208Z,13.02
2023-04-15T18:26:24.413Z,10.63
2023-04-15T18:28:29.687Z,11.45
2023-04-15T18:30:34.828Z,11.95
2023-04-15T18:32:40.085Z,11.38
2023-04-15T18:34:45.587Z,11.55
2023-04-15T18:36:50.931Z,14.68
2023-04-15T18:38:55.986Z,13.52
2023-04-15T18:41:01.015Z,13.73
2023-04-15T18:43:09.555Z,13.32
2023-04-15T18:45:14.907Z,15.20
2023-04-15T18:47:20.325Z,9.65
2023-04-15T18:49:27.300Z,10.07
2023-04-15T18:51:32.720Z,12.85
2023-04-15T18:53:37.739Z,10.60
2023-04-15T18:55:43.114Z,13.13
2023-04-15T18:57:48.385Z,14.60
2023-04-15T18:59:57.144Z,16.88
2023-04-15T19:04:12.215Z,16.38
2023-04-15T19:06:17.247Z,19.35
2023-04-15T19:08:22.355Z,12.95
2023-04-15T19:10:28.432Z,15.15
2023-04-15T19:12:33.472Z,15.98
2023-04-15T19:14:38.485Z,13.05
2023-04-15T19:16:46.263Z,11.63
2023-04-15T19:18:51.373Z,14.25
2023-04-15T19:20:56.535Z,12.48
2023-04-15T19:23:01.563Z,13.20
2023-04-15T19:25:08.111Z,13.77
2023-04-15T19:27:13.444Z,14.65
2023-04-15T19:29:18.480Z,12.80
2023-04-15T19:31:23.593Z,16.85
2023-04-15T19:33:31.648Z,15.82
2023-04-15T19:35:38.397Z,15.07
2023-04-15T19:37:43.743Z,14.13
2023-04-15T19:39:48.750Z,17.40
2023-04-15T19:41:55.445Z,26.13
2023-04-15T19:44:00.625Z,16.45
2023-04-15T19:46:05.750Z,13.93
2023-04-15T19:48:10.907Z,13.82
2023-04-15T19:50:21.402Z,15.77
2023-04-15T19:52:26.436Z,28.08
2023-04-15T19:54:32.351Z,21.77
2023-04-15T19:56:37.732Z,25.08
2023-04-15T19:58:42.733Z,15.68
2023-04-15T20:00:47.759Z,20.23
2023-04-15T20:02:53.000Z,16.08
2023-04-15T20:04:58.087Z,25.67
2023-04-15T20:07:05.847Z,15.02
2023-04-15T20:09:11.524Z,17.25
2023-04-15T20:11:17.454Z,15.05
2023-04-15T20:13:22.459Z,16.42
2023-04-15T20:15:27.490Z,17.15
2023-04-15T20:17:35.878Z,17.13
2023-04-15T20:19:40.938Z,17.48
2023-04-15T20:21:46.097Z,18.90
2023-04-15T20:23:53.676Z,22.20
2023-04-15T20:25:58.665Z,26.02
2023-04-15T20:28:03.773Z,23.80
2023-04-15T20:30:11.115Z,26.67
2023-04-15T20:32:16.106Z,29.13
2023-04-15T20:34:21.218Z,29.70
2023-04-15T20:36:26.702Z,37.35
2023-04-15T20:38:31.801Z,31.75
2023-04-15T20:40:41.541Z,28.67
2023-04-15T20:42:47.465Z,28.00
2023-04-15T20:44:52.515Z,32.03
2023-04-15T20:46:57.812Z,30.05
2023-04-15T20:49:04.140Z,30.52
2023-04-15T20:51:09.258Z,34.88
2023-04-15T20:53:14.557Z,30.48
2023-04-15T20:55:19.743Z,36.13
2023-04-15T20:57:28.890Z,40.10
2023-04-15T20:59:34.965Z,38.10
2023-04-15T21:01:40.383Z,44.17
2023-04-15T21:03:45.681Z,42.17
2023-04-15T21:05:51.371Z,40.15
2023-04-15T21:07:56.885Z,41.45
2023-04-15T21:10:02.059Z,44.08
2023-04-15T21:12:07.137Z,45.40
2023-04-15T21:14:14.730Z,45.75
2023-04-15T21:16:19.842Z,46.22
2023-04-15T21:18:25.758Z,44.28
2023-04-15T21:20:30.767Z,42.72
2023-04-15T21:22:36.042Z,45.33
2023-04-15T21:24:41.066Z,47.90
2023-04-15T21:26:46.043Z,47.45
2023-04-15T21:28:51.334Z,42.58
2023-04-15T21:30:59.368Z,41.30
2023-04-15T21:33:04.382Z,41.47
2023-04-15T21:35:11.455Z,40.00
2023-04-15T21:37:16.461Z,39.28
2023-04-15T21:39:21.683Z,39.75
2023-04-15T21:41:26.939Z,42.25
2023-04-15T21:43:32.085Z,40.10
2023-04-15T21:45:39.479Z,36.63
2023-04-15T21:47:59.760Z,43.22
2023-04-15T21:50:13.655Z,34.17
2023-04-15T21:52:18.712Z,40.33
2023-04-15T21:54:23.732Z,37.58
2023-04-15T21:56:28.868Z,40.83
2023-04-15T21:58:33.937Z,48.00
2023-04-15T22:00:40.805Z,33.70
2023-04-15T22:02:48.609Z,33.72
2023-04-15T22:04:53.658Z,35.40
2023-04-15T22:07:01.791Z,28.38
2023-04-15T22:09:06.964Z,31.58
2023-04-15T22:11:12.612Z,27.27
2023-04-15T22:13:17.637Z,31.52
2023-04-15T22:15:22.618Z,28.83
2023-04-15T22:17:28.317Z,29.33
2023-04-15T22:19:35.976Z,27.25
2023-04-15T22:21:41.020Z,29.77
2023-04-15T22:23:50.185Z,29.08
2023-04-15T22:25:55.211Z,36.53
2023-04-15T22:28:00.188Z,27.17
2023-04-15T22:30:05.462Z,28.95
2023-04-15T22:32:10.655Z,29.33
2023-04-15T22:34:21.593Z,28.05
2023-04-15T22:36:31.281Z,33.35
2023-04-15T22:38:36.584Z,27.85
2023-04-15T22:40:41.699Z,30.48
2023-04-15T22:42:48.016Z,29.40
2023-04-15T22:44:53.715Z,32.80
2023-04-15T22:46:58.709Z,27.05
2023-04-15T22:49:04.770Z,29.92
2023-04-15T22:51:09.863Z,32.75
2023-04-15T22:53:19.403Z,28.75
2023-04-15T22:55:24.496Z,31.23
2023-04-15T22:57:30.883Z,28.85
2023-04-15T22:59:36.115Z,28.55
2023-04-15T23:01:41.251Z,30.25
2023-04-15T23:03:57.541Z,36.08
2023-04-15T23:06:11.534Z,29.00
2023-04-15T23:08:19.335Z,32.30
2023-04-15T23:10:24.614Z,33.47
2023-04-15T23:12:29.707Z,33.15
2023-04-15T23:14:35.304Z,32.42
2023-04-15T23:16:40.465Z,30.48
2023-04-15T23:18:45.652Z,36.55
2023-04-15T23:20:50.968Z,35.08
2023-04-15T23:22:56.047Z,39.15
2023-04-15T23:25:03.707Z,42.35
2023-04-15T23:27:08.706Z,38.58
2023-04-15T23:29:14.249Z,39.33
2023-04-15T23:31:19.552Z,37.83
2023-04-15T23:33:24.594Z,42.25
2023-04-15T23:35:30.550Z,41.45
2023-04-15T23:37:35.700Z,47.38
2023-04-15T23:39:40.692Z,48.42
2023-04-15T23:41:48.504Z,47.60
2023-04-15T23:43:53.632Z,52.17
2023-04-15T23:45:58.659Z,49.40
2023-04-15T23:48:03.721Z,56.55
2023-04-15T23:50:11.441Z,53.40
2023-04-15T23:52:16.465Z,57.22
2023-04-15T23:54:21.468Z,63.17
2023-04-15T23:56:26.992Z,64.63
2023-04-15T23:58:34.733Z,60.20
